Time;durP1;ratioP1;P1;durP2;ratioP2;P2;SDS_P1;SDS_P2;PMS_P1;PMS_P2;Temp;Humidity;BMP_temperature;BMP_pressure;BME280_temperature;BME280_humidity;BME280_pressure;Samples;Min_cycle;Max_cycle;Signal;HPM_P1;HPM_P2
2022/01/06 00:01:59;;;;;;;2.67;1.45;;;;;;;1.88;55.42;92221.47;2074684;69;20608;-68
2022/01/06 00:04:24;;;;;;;5.20;1.95;;;;;;;1.86;56.12;92219.28;2074280;69;20147;-69
2022/01/06 00:06:50;;;;;;;2.13;1.45;;;;;;;1.80;56.34;92221.53;2074698;69;20685;-68
2022/01/06 00:09:18;;;;;;;5.25;1.52;;;;;;;1.82;56.40;92232.81;2074699;69;20155;-68
2022/01/06 00:11:44;;;;;;;3.95;1.42;;;;;;;1.80;56.52;92229.88;2075239;69;20593;-68
2022/01/06 00:14:38;;;;;;;2.00;1.40;;;;;;;1.85;56.50;92233.72;2075320;69;20140;-68
2022/01/06 00:25:10;;;;;;;1.77;1.42;;;;;;;1.67;56.82;92239.19;2075132;69;20231;-76
2022/01/06 00:27:36;;;;;;;4.28;1.80;;;;;;;1.57;57.23;92243.16;2075359;69;20278;-69
2022/01/06 00:30:05;;;;;;;1.73;1.38;;;;;;;1.24;57.94;92249.41;2075116;69;20256;-68
2022/01/06 00:32:32;;;;;;;2.05;1.42;;;;;;;1.65;57.90;92244.59;2072013;69;20147;-68
2022/01/06 00:34:57;;;;;;;2.22;1.33;;;;;;;1.80;57.26;92240.25;2075128;69;20176;-69
2022/01/06 00:37:23;;;;;;;2.90;1.75;;;;;;;1.85;57.28;92242.06;2071849;69;20199;-69
2022/01/06 00:39:49;;;;;;;2.10;1.10;;;;;;;1.67;57.67;92244.75;2074824;69;20140;-68
2022/01/06 00:42:16;;;;;;;2.10;1.20;;;;;;;1.77;57.20;92247.66;2075066;69;20667;-77
2022/01/06 00:44:44;;;;;;;2.25;1.20;;;;;;;1.76;57.60;92255.25;2075334;69;20193;-79
2022/01/06 00:47:11;;;;;;;2.00;1.50;;;;;;;1.81;57.82;92256.31;2075426;69;20163;-70
2022/01/06 00:49:37;;;;;;;4.82;1.30;;;;;;;1.71;57.55;92255.47;2074952;69;20148;-69
2022/01/06 00:52:03;;;;;;;2.08;1.05;;;;;;;1.88;55.80;92263.09;2075142;69;20259;-69
2022/01/06 00:54:32;;;;;;;2.95;1.70;;;;;;;1.51;56.47;92257.97;2075143;69;20127;-68
2022/01/06 00:56:57;;;;;;;2.08;1.45;;;;;;;1.65;56.13;92254.94;2075060;69;20217;-71
2022/01/06 00:59:23;;;;;;;2.75;1.40;;;;;;;1.74;56.45;92248.75;2075049;69;20493;-77
2022/01/06 01:01:48;;;;;;;4.07;1.70;;;;;;;1.75;56.63;92264.13;2075079;69;20162;-68
2022/01/06 01:04:14;;;;;;;2.30;1.17;;;;;;;1.78;57.05;92265.75;2074907;69;20152;-68
2022/01/06 01:06:43;;;;;;;4.03;1.50;;;;;;;1.85;56.55;92272.59;2074994;69;20545;-69
2022/01/06 01:09:09;;;;;;;2.20;1.45;;;;;;;1.78;55.89;92260.94;2075139;69;20175;-70
2022/01/06 01:11:35;;;;;;;2.97;1.10;;;;;;;1.77;56.44;92261.53;2071237;69;20258;-69
2022/01/06 01:14:16;;;;;;;3.20;1.10;;;;;;;1.85;56.44;92265.00;2071037;69;20154;-70
2022/01/06 01:16:52;;;;;;;3.33;1.10;;;;;;;1.67;55.85;92269.72;2075160;69;20152;-70
2022/01/06 01:19:17;;;;;;;1.63;1.00;;;;;;;1.73;56.36;92267.47;2075028;69;20217;-69
2022/01/06 01:21:43;;;;;;;2.42;1.02;;;;;;;1.84;56.32;92271.84;2075055;69;20164;-69
2022/01/06 01:24:09;;;;;;;2.45;1.00;;;;;;;1.82;56.43;92273.72;2074959;69;20166;-69
2022/01/06 01:26:34;;;;;;;1.60;1.10;;;;;;;1.73;57.04;92275.78;2075026;69;20136;-71
2022/01/06 01:29:00;;;;;;;2.35;1.20;;;;;;;1.64;57.14;92276.38;2071990;69;20136;-69
2022/01/06 01:31:28;;;;;;;2.42;1.00;;;;;;;1.48;55.08;92283.34;2075080;69;20602;-72
2022/01/06 01:33:57;;;;;;;2.67;0.90;;;;;;;1.66;55.66;92276.59;2074865;69;20199;-69
2022/01/06 01:36:23;;;;;;;1.90;1.17;;;;;;;1.80;55.88;92293.72;2074866;69;20155;-77
2022/01/06 01:38:49;;;;;;;2.17;1.10;;;;;;;1.81;55.91;92300.00;2075096;69;20529;-73
2022/01/06 01:41:15;;;;;;;3.90;1.65;;;;;;;1.59;56.92;92309.91;2075130;69;20150;-68
2022/01/06 01:43:42;;;;;;;3.50;1.70;;;;;;;1.59;58.87;92309.91;2071547;69;20195;-70
2022/01/06 01:46:12;;;;;;;2.08;1.52;;;;;;;1.81;57.87;92311.09;2075058;69;20170;-68
2022/01/06 01:48:42;;;;;;;2.80;1.35;;;;;;;1.73;56.95;92317.41;2075247;69;20132;-76
2022/01/06 01:51:08;;;;;;;2.13;1.30;;;;;;;1.67;57.56;92322.44;2075093;69;20228;-78
2022/01/06 01:53:38;;;;;;;2.88;1.80;;;;;;;1.74;57.83;92316.13;2074906;69;20163;-70
2022/01/06 01:56:11;;;;;;;2.40;1.40;;;;;;;1.88;56.68;92322.16;2075012;69;20213;-72
2022/01/06 01:58:38;;;;;;;4.10;1.30;;;;;;;1.84;56.60;92324.59;2075119;69;20143;-76
2022/01/06 02:01:04;;;;;;;2.05;1.00;;;;;;;1.84;56.86;92323.84;2075096;69;20183;-72
2022/01/06 02:03:30;;;;;;;3.83;1.38;;;;;;;1.77;56.79;92326.09;2071601;69;20205;-73
2022/01/06 02:05:56;;;;;;;3.35;1.30;;;;;;;1.76;57.22;92324.63;2074833;69;20160;-70
2022/01/06 02:08:22;;;;;;;2.00;1.30;;;;;;;1.68;58.20;92325.97;2075038;69;20147;-71
2022/01/06 02:10:47;;;;;;;3.13;1.50;;;;;;;1.63;57.38;92333.19;2075409;69;20581;-77
2022/01/06 02:13:15;;;;;;;1.50;1.23;;;;;;;1.76;56.74;92332.22;2075165;69;20159;-68
2022/01/06 02:15:41;;;;;;;2.00;1.20;;;;;;;1.67;55.66;92332.81;2074825;69;20220;-68
2022/01/06 02:18:07;;;;;;;2.30;1.10;;;;;;;1.72;54.42;92327.03;2071834;69;20136;-68
2022/01/06 02:20:33;;;;;;;2.83;1.40;;;;;;;1.78;55.59;92335.88;2074802;69;20176;-68
2022/01/06 02:22:58;;;;;;;2.60;1.20;;;;;;;1.82;55.85;92329.94;2075099;69;20195;-69
2022/01/06 02:25:30;;;;;;;3.17;1.38;;;;;;;1.41;58.33;92337.53;2075068;69;20177;-79
2022/01/06 02:27:56;;;;;;;1.98;1.48;;;;;;;1.55;58.58;92338.03;2074920;69;20250;-69
2022/01/06 02:30:25;;;;;;;3.70;2.22;;;;;;;1.49;58.75;92327.16;2074932;69;20247;-71
2022/01/06 02:32:51;;;;;;;4.63;2.47;;;;;;;1.72;58.22;92332.59;2074842;69;20147;-76
2022/01/06 02:35:20;;;;;;;4.95;2.50;;;;;;;1.43;58.67;92339.75;2071377;69;20146;-71
2022/01/06 02:37:46;;;;;;;4.53;1.92;;;;;;;1.60;57.73;92344.66;2074752;69;20520;-71
2022/01/06 02:40:24;;;;;;;4.45;2.30;;;;;;;1.67;57.97;92350.19;2074419;69;20144;-72
2022/01/06 02:42:52;;;;;;;3.05;1.95;;;;;;;1.68;57.79;92348.88;2074828;69;20641;-71
2022/01/06 02:45:19;;;;;;;4.07;2.03;;;;;;;1.66;57.51;92334.13;2074896;69;20187;-78
2022/01/06 02:47:48;;;;;;;3.05;1.85;;;;;;;1.69;57.78;92342.03;2071330;69;20136;-69
2022/01/06 02:50:16;;;;;;;4.07;2.30;;;;;;;1.63;58.23;92340.78;2074603;69;20821;-69
2022/01/06 02:52:42;;;;;;;4.90;1.88;;;;;;;1.63;58.47;92349.09;2074903;69;20176;-68
2022/01/06 02:55:10;;;;;;;3.85;1.90;;;;;;;1.64;58.25;92345.03;2071447;69;20148;-69
2022/01/06 02:57:39;;;;;;;2.30;1.83;;;;;;;1.70;58.39;92351.13;2074796;69;20235;-69
2022/01/06 03:00:09;;;;;;;4.15;1.95;;;;;;;1.69;57.73;92364.22;2074863;69;20150;-69
2022/01/06 03:02:35;;;;;;;2.75;1.70;;;;;;;1.73;58.04;92367.38;2075061;69;20150;-73
2022/01/06 03:05:02;;;;;;;3.00;1.95;;;;;;;1.54;58.40;92361.53;2074968;69;20502;-73
2022/01/06 03:07:27;;;;;;;2.70;1.58;;;;;;;1.64;58.43;92364.44;2074991;69;20150;-75
2022/01/06 03:09:55;;;;;;;3.30;1.55;;;;;;;1.71;57.64;92363.69;2075010;69;20159;-76
2022/01/06 03:14:51;;;;;;;3.30;1.85;;;;;;;1.76;57.87;92359.97;2075111;69;20140;-69
2022/01/06 03:17:16;;;;;;;4.05;2.20;;;;;;;1.75;57.59;92355.72;2075178;69;20224;-73
2022/01/06 03:19:42;;;;;;;3.33;1.80;;;;;;;1.73;57.85;92358.31;2075000;69;20186;-78
2022/01/06 03:22:08;;;;;;;2.22;1.30;;;;;;;1.67;58.32;92357.78;2075146;69;20142;-69
2022/01/06 03:24:33;;;;;;;3.90;1.50;;;;;;;1.66;58.61;92367.41;2075080;69;20172;-69
2022/01/06 03:26:59;;;;;;;4.93;1.08;;;;;;;1.67;58.31;92366.84;2075236;69;20474;-69
2022/01/06 03:29:24;;;;;;;2.50;1.20;;;;;;;1.76;58.30;92371.06;2075122;69;20608;-69
2022/01/06 03:31:50;;;;;;;2.28;1.23;;;;;;;1.72;58.28;92373.50;2075193;69;20176;-68
2022/01/06 03:34:16;;;;;;;3.55;1.42;;;;;;;1.52;59.08;92372.47;2075114;69;20135;-70
2022/01/06 03:36:41;;;;;;;4.18;2.00;;;;;;;1.40;59.31;92374.16;2074894;69;20152;-76
2022/01/06 03:39:07;;;;;;;4.25;1.60;;;;;;;1.38;59.50;92371.94;2075037;69;20209;-80
2022/01/06 03:41:33;;;;;;;6.53;1.88;;;;;;;1.58;59.18;92372.25;2075103;69;20294;-73
2022/01/06 03:43:59;;;;;;;5.28;2.10;;;;;;;1.61;59.36;92376.69;2075096;69;20239;-74
2022/01/06 03:46:25;;;;;;;4.35;2.00;;;;;;;1.51;59.20;92379.28;2075551;69;20144;-78
2022/01/06 03:48:51;;;;;;;3.97;2.05;;;;;;;1.55;59.02;92384.47;2075524;69;20135;-75
2022/01/06 03:51:20;;;;;;;4.57;2.13;;;;;;;1.61;58.52;92379.47;2075437;69;20270;-69
2022/01/06 03:53:47;;;;;;;4.13;2.22;;;;;;;1.57;58.70;92385.38;2075506;69;20178;-70
2022/01/06 03:56:13;;;;;;;3.38;1.92;;;;;;;1.61;58.96;92387.78;2075431;69;20203;-69
2022/01/06 03:58:40;;;;;;;6.22;2.10;;;;;;;1.66;59.02;92393.13;2072143;69;20171;-71
2022/01/06 04:01:07;;;;;;;3.75;2.00;;;;;;;1.60;59.55;92387.03;2075525;69;20140;-69
2022/01/06 04:03:33;;;;;;;3.45;1.88;;;;;;;1.57;58.98;92385.38;2075413;69;20506;-72
2022/01/06 04:05:58;;;;;;;3.42;1.80;;;;;;;1.59;58.66;92379.28;2075394;69;20147;-69
2022/01/06 04:08:24;;;;;;;5.32;1.92;;;;;;;1.56;59.30;92385.94;2075497;69;20179;-79
2022/01/06 04:10:51;;;;;;;4.13;1.77;;;;;;;1.56;59.12;92388.72;2075501;69;20132;-75
2022/01/06 04:13:16;;;;;;;3.13;1.70;;;;;;;1.58;59.75;92392.41;2075461;69;20132;-77
2022/01/06 04:15:44;;;;;;;4.35;1.80;;;;;;;1.57;59.36;92399.25;2075433;69;20151;-74
2022/01/06 04:18:09;;;;;;;4.72;1.67;;;;;;;1.63;59.61;92396.28;2075439;69;20231;-77
2022/01/06 04:20:35;;;;;;;2.97;1.63;;;;;;;1.64;59.30;92397.75;2075474;69;20234;-77
2022/01/06 04:23:01;;;;;;;8.23;1.60;;;;;;;1.54;59.45;92400.38;2075601;69;20140;-72
2022/01/06 04:25:26;;;;;;;2.72;1.60;;;;;;;1.50;59.93;92402.78;2075464;69;20589;-71
2022/01/06 04:27:52;;;;;;;2.65;1.40;;;;;;;1.56;59.65;92406.13;2075544;69;20596;-69
2022/01/06 04:30:17;;;;;;;3.63;1.75;;;;;;;1.49;59.41;92412.41;2075409;69;20163;-68
2022/01/06 04:32:43;;;;;;;2.45;1.55;;;;;;;1.53;59.34;92407.97;2075500;69;20598;-69
2022/01/06 04:35:09;;;;;;;2.72;1.58;;;;;;;1.56;58.94;92417.22;2075385;69;20155;-69
2022/01/06 04:37:35;;;;;;;5.13;1.75;;;;;;;1.57;58.71;92421.47;2075330;69;20143;-70
2022/01/06 04:40:01;;;;;;;3.60;1.70;;;;;;;1.50;59.05;92414.63;2075400;69;20143;-74
2022/01/06 04:42:27;;;;;;;2.38;1.42;;;;;;;1.32;59.25;92428.91;2075548;69;20675;-72
2022/01/06 04:44:52;;;;;;;4.35;1.45;;;;;;;1.50;59.19;92425.72;2075379;69;20231;-76
2022/01/06 04:47:18;;;;;;;3.60;1.73;;;;;;;1.47;59.26;92434.44;2075496;69;20522;-77
2022/01/06 04:49:43;;;;;;;7.18;1.80;;;;;;;1.51;59.67;92438.31;2075257;69;20200;-69
2022/01/06 04:52:09;;;;;;;5.30;2.05;;;;;;;1.50;59.72;92445.13;2075384;69;20193;-73
2022/01/06 04:54:35;;;;;;;2.45;1.58;;;;;;;1.49;60.19;92443.66;2075420;69;20151;-69
2022/01/06 04:57:00;;;;;;;3.63;1.92;;;;;;;1.51;60.68;92451.41;2075186;69;20160;-71
2022/01/06 04:59:26;;;;;;;2.83;1.50;;;;;;;1.53;60.49;92449.56;2075402;69;20152;-69
2022/01/06 05:01:51;;;;;;;2.15;1.60;;;;;;;1.61;60.20;92457.16;2075434;69;20171;-69
2022/01/06 05:04:17;;;;;;;1.88;1.50;;;;;;;1.62;59.78;92467.69;2075322;69;20155;-68
2022/01/06 05:06:42;;;;;;;4.07;2.03;;;;;;;1.62;59.89;92464.19;2075289;69;20599;-69
2022/01/06 05:09:08;;;;;;;4.60;1.60;;;;;;;1.63;60.34;92465.66;2075343;69;20213;-70
2022/01/06 05:11:34;;;;;;;5.88;1.88;;;;;;;1.71;59.85;92461.56;2075386;69;20580;-79
2022/01/06 05:13:59;;;;;;;3.92;1.65;;;;;;;1.63;59.97;92457.31;2075210;69;20141;-77
2022/01/06 05:16:25;;;;;;;3.10;1.63;;;;;;;1.60;60.13;92463.97;2075077;69;20143;-77
2022/01/06 05:18:50;;;;;;;4.22;1.98;;;;;;;1.63;59.99;92468.41;2075162;69;20171;-71
2022/01/06 05:21:16;;;;;;;4.22;1.90;;;;;;;1.60;59.93;92467.50;2075255;69;20132;-74
2022/01/06 05:23:42;;;;;;;2.05;1.60;;;;;;;1.62;59.62;92473.25;2075337;69;20243;-69
2022/01/06 05:26:08;;;;;;;3.80;1.70;;;;;;;1.61;59.99;92468.25;2075305;69;20155;-72
2022/01/06 05:28:34;;;;;;;3.53;1.67;;;;;;;1.58;60.21;92472.88;2075309;69;20183;-69
2022/01/06 05:31:00;;;;;;;6.47;2.63;;;;;;;1.50;60.88;92478.44;2071957;69;20152;-70
2022/01/06 05:33:26;;;;;;;6.05;2.70;;;;;;;1.55;60.79;92482.31;2075329;69;20153;-69
2022/01/06 05:35:52;;;;;;;4.95;2.30;;;;;;;1.62;60.28;92487.09;2075214;69;20140;-69
2022/01/06 05:38:18;;;;;;;5.00;2.45;;;;;;;1.57;60.86;92488.06;2075249;69;20582;-69
2022/01/06 05:40:44;;;;;;;3.92;1.83;;;;;;;1.64;60.41;92490.06;2075427;69;20175;-74
2022/01/06 05:43:10;;;;;;;3.22;1.70;;;;;;;1.62;60.46;92487.09;2075363;69;20151;-73
2022/01/06 05:45:36;;;;;;;2.45;1.45;;;;;;;1.63;60.25;92490.63;2075412;69;20155;-75
2022/01/06 05:48:02;;;;;;;1.83;1.30;;;;;;;1.59;60.22;92485.44;2075269;69;20234;-70
2022/01/06 05:50:27;;;;;;;5.10;2.00;;;;;;;1.54;60.17;92491.94;2075158;69;20171;-74
2022/01/06 05:52:54;;;;;;;5.20;2.95;;;;;;;1.51;60.47;92493.78;2075275;69;20151;-70
2022/01/06 05:55:23;;;;;;;4.80;2.50;;;;;;;1.53;60.53;92498.78;2075239;69;20146;-73
2022/01/06 05:57:50;;;;;;;6.35;3.03;;;;;;;1.51;60.91;92504.91;2075286;69;20140;-77
2022/01/06 06:00:17;;;;;;;4.43;2.05;;;;;;;1.52;60.70;92497.31;2075351;69;20160;-74
2022/01/06 06:02:42;;;;;;;3.55;1.65;;;;;;;1.53;60.88;92505.06;2075293;69;20148;-72
2022/01/06 06:05:08;;;;;;;3.13;1.45;;;;;;;1.58;60.60;92505.44;2075122;69;20152;-70
2022/01/06 06:07:34;;;;;;;3.22;1.30;;;;;;;1.57;59.95;92509.50;2075165;69;20164;-70
2022/01/06 06:09:59;;;;;;;5.45;2.10;;;;;;;1.60;60.01;92508.38;2075230;69;20723;-69
2022/01/06 06:12:25;;;;;;;4.30;1.95;;;;;;;1.54;60.56;92500.25;2075206;69;20168;-69
2022/01/06 06:14:50;;;;;;;4.20;2.03;;;;;;;1.53;60.36;92504.31;2075225;69;20156;-73
2022/01/06 06:17:16;;;;;;;2.88;1.77;;;;;;;1.57;60.19;92510.25;2075146;69;20147;-70
2022/01/06 06:19:41;;;;;;;7.93;1.85;;;;;;;1.59;60.19;92507.63;2075032;69;20180;-68
2022/01/06 06:22:10;;;;;;;3.40;1.20;;;;;;;1.62;59.90;92509.31;2075151;69;20594;-69
2022/01/06 06:24:36;;;;;;;5.13;2.40;;;;;;;1.59;59.64;92513.19;2075227;69;20140;-72
2022/01/06 06:27:03;;;;;;;3.42;2.50;;;;;;;1.51;60.63;92512.44;2075074;69;20132;-68
2022/01/06 06:29:29;;;;;;;3.22;1.85;;;;;;;1.46;61.11;92514.13;2075140;69;20602;-73
2022/01/06 06:31:55;;;;;;;5.03;1.33;;;;;;;1.53;60.62;92507.09;2075079;69;20152;-69
2022/01/06 06:34:21;;;;;;;4.25;1.70;;;;;;;1.53;60.51;92510.63;2075122;69;20139;-71
2022/01/06 06:36:46;;;;;;;2.58;1.48;;;;;;;1.50;60.09;92508.22;2075123;69;20152;-70
2022/01/06 06:39:12;;;;;;;4.60;1.30;;;;;;;1.31;60.37;92510.63;2075146;69;20144;-70
2022/01/06 06:41:37;;;;;;;4.35;1.60;;;;;;;1.40;60.70;92524.69;2071831;69;20475;-70
2022/01/06 06:44:03;;;;;;;4.30;2.42;;;;;;;1.47;60.43;92523.94;2075214;69;20609;-70
2022/01/06 06:46:29;;;;;;;6.50;3.15;;;;;;;1.52;60.04;92525.78;2075142;69;20213;-81
2022/01/06 06:48:55;;;;;;;9.23;2.78;;;;;;;1.49;60.51;92524.13;2075176;69;20159;-80
2022/01/06 06:51:20;;;;;;;11.45;3.53;;;;;;;1.55;60.42;92518.38;2074958;69;20152;-71
2022/01/06 06:53:46;;;;;;;9.30;3.70;;;;;;;1.51;60.65;92518.75;2075142;69;20147;-72
2022/01/06 06:56:11;;;;;;;21.25;10.30;;;;;;;1.52;60.48;92523.00;2074922;69;20600;-72
2022/01/06 06:58:37;;;;;;;26.88;12.70;;;;;;;1.57;60.22;92523.38;2075231;69;20151;-70
2022/01/06 07:01:03;;;;;;;16.80;7.43;;;;;;;1.57;60.15;92526.16;2075092;69;20140;-70
2022/01/06 07:03:28;;;;;;;12.05;4.72;;;;;;;1.51;60.41;92527.09;2075077;69;20197;-73
2022/01/06 07:05:54;;;;;;;9.20;4.40;;;;;;;1.43;59.69;92517.28;2074982;69;20151;-70
2022/01/06 07:08:19;;;;;;;11.07;5.68;;;;;;;1.36;59.86;92524.31;2075178;69;20205;-70
2022/01/06 07:10:45;;;;;;;7.85;4.10;;;;;;;1.31;59.68;92521.72;2071717;69;20197;-71
2022/01/06 07:13:16;;;;;;;7.28;3.15;;;;;;;1.52;59.79;92525.06;2075030;69;20139;-69
2022/01/06 07:15:43;;;;;;;5.10;2.83;;;;;;;1.40;59.73;92530.22;2075076;69;20148;-68
2022/01/06 07:18:08;;;;;;;6.18;2.58;;;;;;;1.48;59.61;92528.19;2075098;69;20219;-77
2022/01/06 07:20:34;;;;;;;7.70;2.45;;;;;;;1.50;59.51;92530.41;2075915;69;20263;-80
2022/01/06 07:22:59;;;;;;;3.75;2.05;;;;;;;1.58;59.14;92530.41;2076132;69;20144;-71
2022/01/06 07:25:25;;;;;;;5.78;2.30;;;;;;;1.59;58.79;92534.66;2076290;69;20221;-73
2022/01/06 07:27:51;;;;;;;5.85;2.38;;;;;;;1.44;59.07;92541.69;2076224;69;20152;-73
2022/01/06 07:30:16;;;;;;;9.25;3.17;;;;;;;1.62;59.14;92537.06;2076133;69;20248;-73
2022/01/06 07:32:47;;;;;;;9.20;3.85;;;;;;;1.60;58.39;92536.84;2076197;69;20491;-70
2022/01/06 07:35:13;;;;;;;7.13;3.50;;;;;;;1.32;59.67;92534.28;2072497;69;20659;-74
2022/01/06 07:37:39;;;;;;;8.25;2.83;;;;;;;1.51;58.92;92540.97;2075889;69;20671;-76
2022/01/06 07:40:07;;;;;;;5.07;2.65;;;;;;;1.43;58.36;92539.47;2072736;69;20259;-73
2022/01/06 07:42:33;;;;;;;6.43;2.83;;;;;;;1.36;59.05;92540.22;2076054;69;20243;-69
2022/01/06 07:45:00;;;;;;;8.73;3.15;;;;;;;1.31;58.82;92541.16;2076071;69;20681;-73
2022/01/06 07:47:26;;;;;;;4.65;2.85;;;;;;;1.33;58.84;92533.75;2076174;69;20143;-70
2022/01/06 07:49:51;;;;;;;6.75;2.92;;;;;;;1.59;58.77;92529.84;2076108;69;20140;-76
2022/01/06 07:52:18;;;;;;;6.45;3.20;;;;;;;1.72;58.32;92543.50;2076253;69;20577;-80
2022/01/06 07:54:43;;;;;;;8.20;3.28;;;;;;;1.72;58.59;92537.97;2076365;69;20151;-75
2022/01/06 07:57:09;;;;;;;5.85;3.60;;;;;;;1.73;58.31;92553.31;2076285;69;20139;-70
2022/01/06 07:59:35;;;;;;;6.85;3.40;;;;;;;1.70;57.78;92550.94;2076155;69;20154;-77
2022/01/06 08:02:00;;;;;;;7.20;3.67;;;;;;;1.49;58.39;92556.66;2076164;69;20618;-79
2022/01/06 08:04:26;;;;;;;10.38;3.65;;;;;;;1.74;58.11;92565.91;2075969;69;20235;-80
2022/01/06 08:06:52;;;;;;;6.90;3.70;;;;;;;1.92;58.00;92566.78;2072811;69;20144;-78
2022/01/06 08:09:17;;;;;;;8.25;3.88;;;;;;;1.92;57.92;92566.06;2076222;69;20487;-78
2022/01/06 08:11:43;;;;;;;13.20;6.10;;;;;;;1.86;57.70;92562.75;2076141;69;20525;-81
2022/01/06 08:14:08;;;;;;;11.90;4.90;;;;;;;2.04;57.35;92573.44;2076042;69;20143;-81
2022/01/06 08:16:34;;;;;;;10.73;4.80;;;;;;;2.15;57.41;92568.78;2076024;69;20187;-82
2022/01/06 08:19:00;;;;;;;6.20;3.15;;;;;;;1.93;56.79;92568.28;2076126;69;20491;-71
2022/01/06 08:21:25;;;;;;;8.18;3.42;;;;;;;2.03;57.23;92574.00;2075934;69;20573;-74
2022/01/06 08:23:51;;;;;;;7.97;3.28;;;;;;;2.19;56.66;92569.88;2076005;69;20152;-81
2022/01/06 08:26:17;;;;;;;6.00;3.45;;;;;;;2.18;56.57;92576.00;2076041;69;20131;-78
2022/01/06 08:28:46;;;;;;;8.70;3.97;;;;;;;2.17;56.76;92577.31;2076038;69;20147;-79
2022/01/06 08:31:13;;;;;;;7.57;4.10;;;;;;;2.36;56.59;92576.88;2075581;69;20303;-79
2022/01/06 08:33:39;;;;;;;8.75;3.90;;;;;;;2.52;56.66;92575.50;2075418;69;20246;-74
2022/01/06 08:36:05;;;;;;;7.45;3.58;;;;;;;2.48;56.51;92578.69;2075240;69;20171;-77
2022/01/06 08:38:31;;;;;;;5.05;2.97;;;;;;;2.39;56.22;92578.53;2075382;69;20140;-80
2022/01/06 08:40:56;;;;;;;5.13;3.08;;;;;;;1.93;56.69;92579.41;2075546;69;20590;-79
2022/01/06 08:43:27;;;;;;;7.13;3.15;;;;;;;2.19;56.36;92578.22;2075716;69;20156;-80
2022/01/06 08:46:02;;;;;;;7.65;3.20;;;;;;;2.13;55.65;92586.00;2075470;69;20160;-79
2022/01/06 08:48:30;;;;;;;7.75;3.70;;;;;;;2.11;55.29;92579.53;2075515;69;20168;-80
2022/01/06 08:50:57;;;;;;;6.75;3.50;;;;;;;1.94;55.62;92582.91;2075253;69;20286;-79
2022/01/06 08:53:24;;;;;;;6.45;3.78;;;;;;;2.37;55.72;92590.19;2075441;69;20139;-70
2022/01/06 08:55:50;;;;;;;6.35;3.25;;;;;;;2.29;55.45;92589.47;2072006;69;20148;-70
2022/01/06 08:58:16;;;;;;;5.97;2.72;;;;;;;2.23;55.30;92598.00;2075492;69;20625;-71
2022/01/06 09:00:43;;;;;;;7.20;2.92;;;;;;;2.69;55.10;92595.09;2075356;69;20147;-78
2022/01/06 09:03:09;;;;;;;6.40;2.60;;;;;;;2.94;55.37;92594.44;2075448;69;20180;-77
2022/01/06 09:05:36;;;;;;;8.80;4.13;;;;;;;3.06;55.03;92590.63;2075171;69;20632;-78
2022/01/06 09:08:03;;;;;;;12.88;5.60;;;;;;;2.78;55.58;92597.28;2075359;69;20156;-77
2022/01/06 09:10:30;;;;;;;9.50;4.20;;;;;;;2.86;55.53;92585.38;2075378;69;20147;-76
2022/01/06 09:12:56;;;;;;;8.48;4.25;;;;;;;2.96;55.74;92592.56;2072382;69;20238;-80
2022/01/06 09:15:22;;;;;;;10.02;4.50;;;;;;;3.20;55.25;92593.16;2075510;69;20155;-81
2022/01/06 09:17:48;;;;;;;5.95;3.35;;;;;;;3.09;54.75;92588.03;2075468;69;20182;-84
2022/01/06 09:20:14;;;;;;;8.93;3.60;;;;;;;3.23;54.20;92581.63;2075353;69;20164;-83
2022/01/06 09:22:41;;;;;;;10.55;4.00;;;;;;;3.13;54.26;92588.41;2075918;69;20247;-78
2022/01/06 09:25:08;;;;;;;8.85;4.18;;;;;;;3.33;55.61;92592.16;2075956;69;20144;-72
2022/01/06 09:27:34;;;;;;;10.18;3.90;;;;;;;3.52;55.16;92598.69;2076023;69;20199;-69
2022/01/06 09:30:00;;;;;;;9.48;3.90;;;;;;;3.54;54.62;92598.13;2076173;69;20168;-74
2022/01/06 09:32:26;;;;;;;6.85;3.97;;;;;;;3.45;54.47;92604.31;2075351;69;20185;-75
2022/01/06 09:34:51;;;;;;;7.80;3.33;;;;;;;3.78;53.81;92596.66;2075237;69;20144;-80
2022/01/06 09:37:18;;;;;;;7.03;3.83;;;;;;;3.70;52.53;92590.41;2075397;69;20135;-76
2022/01/06 09:39:45;;;;;;;8.13;3.65;;;;;;;4.11;53.17;92599.34;2075566;69;20155;-76
2022/01/06 09:42:12;;;;;;;7.18;3.20;;;;;;;4.67;52.78;92602.47;2075328;69;20136;-77
2022/01/06 09:44:38;;;;;;;5.68;2.35;;;;;;;4.84;51.05;92603.19;2075268;69;20227;-81
2022/01/06 09:47:06;;;;;;;9.27;3.55;;;;;;;5.33;50.16;92597.94;2075249;69;20567;-80
2022/01/06 09:49:37;;;;;;;8.15;4.40;;;;;;;5.93;49.34;92594.81;2075294;69;20326;-81
2022/01/06 09:52:04;;;;;;;6.15;2.63;;;;;;;6.27;49.08;92593.88;2071963;69;20184;-80
2022/01/06 09:54:29;;;;;;;4.13;2.42;;;;;;;6.56;48.44;92603.06;2075320;69;20616;-71
2022/01/06 09:56:55;;;;;;;4.00;1.98;;;;;;;6.92;46.26;92600.69;2075246;69;20156;-71
2022/01/06 09:59:20;;;;;;;3.08;1.80;;;;;;;7.50;45.84;92601.34;2075328;69;20136;-72
2022/01/06 10:01:49;;;;;;;2.67;1.58;;;;;;;7.95;44.84;92607.25;2075415;69;20163;-72
2022/01/06 10:04:27;;;;;;;5.07;1.90;;;;;;;7.74;44.81;92599.50;2075165;69;20510;-80
2022/01/06 10:07:03;;;;;;;4.32;2.45;;;;;;;7.14;43.71;92605.09;2075230;69;20136;-75
2022/01/06 10:09:29;;;;;;;14.65;8.85;;;;;;;6.27;45.11;92605.78;2075219;69;20586;-79
2022/01/06 10:11:57;;;;;;;8.82;5.40;;;;;;;6.59;43.87;92603.91;2075220;69;20714;-79
2022/01/06 10:14:32;;;;;;;5.35;2.90;;;;;;;6.15;44.67;92609.75;2075310;69;20155;-79
2022/01/06 10:16:59;;;;;;;5.40;2.95;;;;;;;6.46;45.91;92607.13;2071798;69;20170;-73
2022/01/06 10:19:25;;;;;;;4.60;2.72;;;;;;;6.54;45.21;92610.53;2075023;69;20155;-80
2022/01/06 10:21:57;;;;;;;5.82;2.60;;;;;;;6.70;44.46;92606.16;2075171;69;20154;-80
2022/01/06 10:24:26;;;;;;;4.57;2.60;;;;;;;6.76;44.44;92606.59;2075191;69;20144;-80
2022/01/06 10:26:56;;;;;;;4.90;2.85;;;;;;;6.95;44.33;92616.31;2075221;69;20154;-81
2022/01/06 10:29:30;;;;;;;5.03;2.65;;;;;;;6.86;43.74;92612.19;2075275;69;20143;-81
2022/01/06 10:32:03;;;;;;;6.10;3.25;;;;;;;6.85;44.74;92611.44;2075231;69;20631;-79
2022/01/06 10:34:31;;;;;;;4.47;2.70;;;;;;;6.83;43.72;92614.09;2075134;69;20163;-81
2022/01/06 10:36:57;;;;;;;5.05;3.03;;;;;;;6.65;43.75;92604.38;2075257;69;20231;-79
2022/01/06 10:39:23;;;;;;;5.28;2.90;;;;;;;6.74;44.53;92605.72;2075155;69;20575;-71
2022/01/06 10:41:48;;;;;;;11.43;3.38;;;;;;;6.76;45.34;92611.44;2075124;69;20235;-71
2022/01/06 10:44:14;;;;;;;7.72;2.90;;;;;;;6.46;44.66;92605.09;2069205;69;20156;-71
2022/01/06 10:46:42;;;;;;;6.90;2.20;;;;;;;5.77;42.98;92611.81;2075111;69;20144;-71
2022/01/06 10:49:16;;;;;;;4.20;2.15;;;;;;;5.82;44.62;92601.69;2075058;69;20160;-72
2022/01/06 10:51:48;;;;;;;7.70;2.90;;;;;;;5.39;45.18;92606.75;2074993;69;20692;-77
2022/01/06 10:54:21;;;;;;;6.28;2.70;;;;;;;5.33;45.59;92609.81;2074923;69;20136;-77
2022/01/06 10:56:57;;;;;;;;;;;;;;;6.35;46.12;92603.59;2075163;69;20182;-76
2022/01/06 10:59:29;;;;;;;5.10;3.05;;;;;;;6.93;44.84;92610.56;2075113;69;20040;-72
2022/01/06 11:01:55;;;;;;;5.13;3.17;;;;;;;7.27;44.36;92604.63;2071713;69;20657;-72
2022/01/06 11:04:21;;;;;;;5.95;3.42;;;;;;;6.96;44.60;92607.31;2071529;69;20139;-72
2022/01/06 11:06:49;;;;;;;11.50;6.13;;;;;;;6.83;43.97;92602.91;2071692;69;20151;-74
2022/01/06 11:09:15;;;;;;;9.52;4.95;;;;;;;6.75;44.97;92607.91;2075132;69;20606;-75
2022/01/06 11:14:26;;;;;;;4.78;2.90;;;;;;;6.38;44.69;92603.75;2075248;69;20166;-74
2022/01/06 11:16:52;;;;;;;6.90;3.17;;;;;;;6.83;44.72;92602.19;2075005;69;20516;-73
2022/01/06 11:19:21;;;;;;;18.08;9.55;;;;;;;7.37;43.49;92604.59;2075160;69;20139;-73
2022/01/06 11:21:48;;;;;;;12.57;6.25;;;;;;;9.08;43.73;92607.03;2075062;69;20143;-70
2022/01/06 11:24:18;;;;;;;6.35;2.63;;;;;;;7.86;41.18;92602.41;2074973;69;20248;-73
2022/01/06 11:26:55;;;;;;;6.93;2.25;;;;;;;7.58;43.14;92593.50;2075065;69;20147;-73
2022/01/06 11:29:29;;;;;;;3.90;2.33;;;;;;;7.19;42.62;92595.66;2075133;69;20189;-71
2022/01/06 11:31:54;;;;;;;4.10;1.83;;;;;;;7.28;40.67;92591.38;2075092;69;20144;-70
2022/01/06 11:34:20;;;;;;;4.75;1.92;;;;;;;7.00;41.25;92596.41;2075000;69;20150;-70
2022/01/06 11:36:50;;;;;;;7.13;3.50;;;;;;;7.09;41.97;92586.53;2074809;69;20162;-70
2022/01/06 11:39:30;;;;;;;4.63;3.10;;;;;;;7.37;41.86;92591.34;2074798;69;20151;-70
2022/01/06 11:41:58;;;;;;;4.50;2.17;;;;;;;7.56;42.29;92593.38;2075015;69;20669;-70
2022/01/06 11:44:27;;;;;;;3.50;1.60;;;;;;;7.62;42.01;92590.25;2075262;69;20140;-75
2022/01/06 11:46:59;;;;;;;2.30;1.42;;;;;;;7.78;41.05;92587.84;2069777;69;20673;-73
2022/01/06 11:49:33;;;;;;;3.50;1.70;;;;;;;7.82;41.83;92588.13;2073071;69;20175;-73
2022/01/06 11:52:17;;;;;;;4.38;2.10;;;;;;;6.53;42.95;92595.09;2073685;69;20148;-77
2022/01/06 11:54:49;;;;;;;2.75;2.03;;;;;;;7.61;43.72;92600.00;2074021;69;20268;-71